Time;durP1;ratioP1;P1;durP2;ratioP2;P2;SDS_P1;SDS_P2;PMS_P1;PMS_P2;Temp;Humidity;BMP_temperature;BMP_pressure;BME280_temperature;BME280_humidity;BME280_pressure;Samples;Min_cycle;Max_cycle;Signal;HPM_P1;HPM_P2
2021/07/29 00:02:20;;;;;;;2.65;2.15;;;;;;;16.70;80.26;100356.13;5039961;28;20131;-84
2021/07/29 00:04:50;;;;;;;5.10;2.10;;;;;;;16.66;80.12;100362.41;5054038;28;20060;-84
2021/07/29 00:07:18;;;;;;;2.40;2.20;;;;;;;16.60;80.25;100354.75;5019247;28;20122;-84
2021/07/29 00:09:49;;;;;;;2.30;2.13;;;;;;;16.59;80.14;100345.94;4976193;28;20052;-84
2021/07/29 00:12:16;;;;;;;2.72;2.55;;;;;;;16.56;80.17;100348.72;5036135;28;20038;-84
2021/07/29 00:14:49;;;;;;;3.33;2.83;;;;;;;16.53;79.95;100348.81;5053469;28;20214;-84
2021/07/29 00:19:00;;;;;;;3.75;2.40;;;;;;;16.50;79.93;100343.66;5038604;28;20349;-83
2021/07/29 00:20:23;;;;;;;5.13;2.28;;;;;;;16.50;80.24;100341.00;5052873;28;20071;-83
2021/07/29 00:22:53;;;;;;;1.98;1.85;;;;;;;16.53;79.72;100336.47;5034749;28;20052;-83
2021/07/29 00:25:23;;;;;;;2.55;2.33;;;;;;;16.59;79.57;100329.22;5052474;28;20051;-82
2021/07/29 00:27:51;;;;;;;1.90;1.80;;;;;;;16.63;79.49;100330.84;5040230;28;20052;-84
2021/07/29 00:30:21;;;;;;;2.65;2.33;;;;;;;16.63;79.80;100329.03;5053292;28;20048;-84
2021/07/29 00:32:58;;;;;;;4.45;2.28;;;;;;;16.62;79.18;100323.81;5052360;28;20043;-84
2021/07/29 00:35:25;;;;;;;5.68;2.35;;;;;;;16.61;79.15;100327.38;5057831;28;20383;-84
2021/07/29 00:38:00;;;;;;;3.65;2.38;;;;;;;16.59;79.02;100322.16;5021013;28;20052;-82
2021/07/29 00:40:27;;;;;;;3.17;2.15;;;;;;;16.59;79.20;100318.66;5027574;28;20052;-83
2021/07/29 00:42:54;;;;;;;3.00;1.90;;;;;;;16.61;79.04;100316.81;5050930;28;20122;-84
2021/07/29 00:45:21;;;;;;;3.40;2.30;;;;;;;16.62;78.92;100300.91;5052741;28;20041;-84
2021/07/29 00:47:50;;;;;;;3.78;2.00;;;;;;;16.63;78.77;100304.41;5025977;28;20044;-84
2021/07/29 00:50:20;;;;;;;3.22;2.15;;;;;;;16.59;78.82;100300.16;5021450;28;20055;-83
2021/07/29 00:52:48;;;;;;;3.35;2.08;;;;;;;16.56;78.77;100295.88;5042239;28;20521;-84
2021/07/29 00:55:16;;;;;;;2.97;2.00;;;;;;;16.53;78.81;100296.84;4974418;28;20055;-83
2021/07/29 00:57:44;;;;;;;1.98;1.63;;;;;;;16.50;78.98;100298.75;5056610;28;20048;-83
2021/07/29 01:00:20;;;;;;;2.28;1.85;;;;;;;16.51;79.23;100303.97;5036224;28;20077;-83
2021/07/29 01:02:47;;;;;;;4.90;2.17;;;;;;;16.53;79.32;100309.19;5055724;28;20064;-84
2021/07/29 01:05:14;;;;;;;4.13;2.33;;;;;;;16.54;79.06;100306.50;5041642;28;20056;-84
2021/07/29 01:07:42;;;;;;;6.05;1.70;;;;;;;16.62;79.05;100300.91;5019277;28;20049;-83
2021/07/29 01:10:10;;;;;;;3.28;1.90;;;;;;;16.69;78.44;100302.38;5044018;28;20068;-84
2021/07/29 01:12:37;;;;;;;2.25;1.52;;;;;;;16.77;77.83;100312.63;5024318;28;20618;-84
2021/07/29 01:15:05;;;;;;;6.50;2.17;;;;;;;16.83;77.70;100315.03;5029808;28;20045;-84
2021/07/29 01:17:34;;;;;;;7.85;2.33;;;;;;;16.91;77.22;100320.06;5040941;28;20052;-84
2021/07/29 01:20:02;;;;;;;1.58;1.38;;;;;;;16.96;77.35;100317.22;5057398;28;20079;-84
2021/07/29 01:22:37;;;;;;;3.05;2.33;;;;;;;17.00;77.63;100313.50;5026883;28;20105;-84
2021/07/29 01:25:05;;;;;;;2.70;1.40;;;;;;;17.01;76.69;100324.03;5039519;28;20109;-84
2021/07/29 01:27:40;;;;;;;7.90;2.08;;;;;;;17.05;76.59;100337.97;5045385;28;20048;-85
2021/07/29 01:30:08;;;;;;;3.42;2.10;;;;;;;17.09;76.58;100342.25;5026855;28;20215;-85
2021/07/29 01:32:36;;;;;;;2.92;1.80;;;;;;;17.10;76.74;100349.22;5042543;28;20055;-85
2021/07/29 01:35:03;;;;;;;5.68;1.63;;;;;;;17.07;77.15;100348.53;5045021;28;20044;-86
2021/07/29 01:37:30;;;;;;;5.53;1.85;;;;;;;17.03;76.78;100340.69;5025176;28;20059;-84
2021/07/29 01:39:58;;;;;;;4.32;2.38;;;;;;;16.98;77.78;100350.59;5050203;28;21614;-85
2021/07/29 01:42:25;;;;;;;3.78;2.13;;;;;;;16.92;78.70;100349.97;5041151;28;20044;-87
2021/07/29 01:44:55;;;;;;;4.32;2.53;;;;;;;16.83;79.19;100349.41;5045485;28;20048;-87
2021/07/29 01:47:22;;;;;;;4.00;2.08;;;;;;;16.76;79.58;100350.56;5018686;28;20043;-85
2021/07/29 01:49:53;;;;;;;2.78;1.92;;;;;;;16.69;80.59;100354.38;5043391;28;20052;-85
2021/07/29 01:52:20;;;;;;;1.92;1.83;;;;;;;16.58;81.61;100351.28;5057927;28;20054;-85
2021/07/29 01:54:47;;;;;;;2.13;1.98;;;;;;;16.51;81.30;100340.94;5041845;28;20040;-86
2021/07/29 01:57:14;;;;;;;3.55;1.80;;;;;;;16.51;81.40;100342.75;5059694;28;20055;-87
2021/07/29 01:59:41;;;;;;;2.25;1.88;;;;;;;16.51;82.13;100335.66;5038200;28;20048;-84
2021/07/29 02:02:07;;;;;;;4.22;1.92;;;;;;;16.50;81.48;100330.44;5061492;28;20062;-85
2021/07/29 02:04:37;;;;;;;2.53;2.33;;;;;;;16.47;81.61;100344.63;5045388;28;20110;-86
2021/07/29 02:07:06;;;;;;;3.90;2.00;;;;;;;16.35;83.18;100329.28;5039854;28;20056;-84
2021/07/29 02:09:33;;;;;;;3.50;1.80;;;;;;;16.08;84.49;100339.94;5040719;28;20060;-87
2021/07/29 02:12:00;;;;;;;2.08;1.70;;;;;;;15.88;85.57;100332.75;5035028;28;20057;-85
2021/07/29 02:14:28;;;;;;;3.80;1.90;;;;;;;15.71;86.79;100331.53;5056516;28;20149;-85
2021/07/29 02:16:55;;;;;;;2.78;1.30;;;;;;;15.60;87.71;100325.78;5023042;28;20507;-86
2021/07/29 02:19:22;;;;;;;2.72;2.10;;;;;;;15.51;88.74;100334.00;5044929;28;21296;-88
2021/07/29 02:21:49;;;;;;;2.13;1.92;;;;;;;15.39;91.06;100309.78;5023528;28;20045;-86
2021/07/29 02:24:15;;;;;;;3.05;2.30;;;;;;;15.29;91.22;100315.41;5040220;28;20066;-85
2021/07/29 02:26:45;;;;;;;2.10;2.00;;;;;;;15.23;92.67;100311.22;5042376;28;20139;-86
2021/07/29 02:29:13;;;;;;;2.50;2.28;;;;;;;15.19;92.25;100299.91;5033301;28;20057;-86
2021/07/29 02:31:40;;;;;;;3.40;2.33;;;;;;;15.18;92.21;100294.69;5038210;28;20095;-86
2021/07/29 02:34:10;;;;;;;2.85;2.55;;;;;;;15.21;93.14;100291.94;5022513;28;20043;-86
2021/07/29 02:36:38;;;;;;;2.67;2.35;;;;;;;15.22;92.07;100286.63;5058690;28;20048;-85
2021/07/29 02:39:13;;;;;;;2.00;1.88;;;;;;;15.27;92.11;100291.75;5026099;28;20049;-85
2021/07/29 02:41:40;;;;;;;6.32;2.25;;;;;;;15.30;92.39;100293.41;5024832;28;20060;-86
2021/07/29 02:44:06;;;;;;;2.17;1.90;;;;;;;15.33;92.75;100288.03;5027710;28;20051;-86
2021/07/29 02:46:33;;;;;;;4.05;2.15;;;;;;;15.37;91.97;100294.94;5039476;28;20050;-86
2021/07/29 02:48:59;;;;;;;2.63;1.83;;;;;;;15.39;91.90;100285.19;5044391;28;20145;-86
2021/07/29 02:51:26;;;;;;;2.40;1.70;;;;;;;15.41;91.50;100280.72;5036370;28;20044;-86
2021/07/29 02:53:53;;;;;;;2.47;2.10;;;;;;;15.44;91.21;100288.53;4977209;28;20135;-85
2021/07/29 02:56:19;;;;;;;1.85;1.73;;;;;;;15.52;91.11;100280.34;5040207;28;20048;-86
2021/07/29 02:58:47;;;;;;;4.57;2.22;;;;;;;15.58;90.78;100281.88;5055621;28;20072;-85
2021/07/29 03:01:16;;;;;;;1.73;1.40;;;;;;;15.61;90.39;100285.28;5026778;28;20058;-86
2021/07/29 03:03:48;;;;;;;3.60;2.05;;;;;;;15.62;90.97;100271.19;5040428;28;20045;-86
2021/07/29 03:06:15;;;;;;;2.47;2.17;;;;;;;15.62;91.36;100271.19;5044654;28;20052;-86
2021/07/29 03:08:41;;;;;;;2.83;2.00;;;;;;;15.62;91.57;100289.66;5056767;28;20052;-87
2021/07/29 03:11:11;;;;;;;2.20;2.00;;;;;;;15.61;90.98;100284.44;5027156;28;20149;-86
2021/07/29 03:13:38;;;;;;;2.95;2.13;;;;;;;15.56;91.43;100279.31;5046419;28;20037;-86
2021/07/29 03:16:05;;;;;;;2.58;2.00;;;;;;;15.43;91.38;100284.16;5043380;28;20048;-86
2021/07/29 03:18:32;;;;;;;2.42;1.90;;;;;;;15.33;92.37;100288.03;5041962;28;21282;-84
2021/07/29 03:20:59;;;;;;;3.08;2.47;;;;;;;15.25;92.92;100283.00;5027811;28;20040;-85
2021/07/29 03:23:26;;;;;;;2.72;2.28;;;;;;;15.18;92.54;100279.72;5039493;28;20045;-86
2021/07/29 03:25:55;;;;;;;2.33;2.22;;;;;;;15.14;93.59;100282.53;5039126;28;20962;-85
2021/07/29 03:28:23;;;;;;;3.30;2.50;;;;;;;15.11;93.80;100282.63;5011694;28;20052;-87
2021/07/29 03:30:53;;;;;;;2.33;2.05;;;;;;;15.11;93.68;100282.63;5023395;28;21325;-85
2021/07/29 03:33:20;;;;;;;2.45;2.30;;;;;;;15.12;93.87;100279.09;5039838;28;20076;-87
2021/07/29 03:35:47;;;;;;;4.13;2.60;;;;;;;15.17;93.00;100278.00;5040874;28;20911;-86
2021/07/29 03:38:15;;;;;;;2.65;2.45;;;;;;;15.22;92.28;100281.34;5010518;28;20499;-86
2021/07/29 03:40:46;;;;;;;2.58;2.38;;;;;;;15.33;92.37;100277.47;5040435;28;20053;-84
2021/07/29 03:43:13;;;;;;;5.13;2.63;;;;;;;15.42;91.13;100277.16;5039703;28;20032;-86
2021/07/29 03:45:43;;;;;;;2.03;1.83;;;;;;;15.46;91.00;100281.44;5026521;28;20136;-86
2021/07/29 03:48:10;;;;;;;4.22;1.58;;;;;;;15.49;90.75;100280.47;5027547;28;20044;-86
2021/07/29 03:50:39;;;;;;;3.20;2.17;;;;;;;15.53;90.22;100276.78;5016107;28;20063;-85
2021/07/29 03:53:06;;;;;;;2.60;2.40;;;;;;;15.55;90.09;100277.59;5030238;28;20045;-85
2021/07/29 03:55:33;;;;;;;2.88;1.95;;;;;;;15.58;89.78;100279.25;5028255;28;20049;-87
2021/07/29 03:58:12;;;;;;;;;;;;;;;;;;;;;
2021/07/29 04:00:45;;;;;;;1.92;1.83;;;;;;;15.62;89.22;100276.47;5012478;28;20051;-84
2021/07/29 04:03:12;;;;;;;2.33;2.20;;;;;;;15.66;89.18;100290.41;5042320;28;20551;-86
2021/07/29 04:05:41;;;;;;;2.85;1.83;;;;;;;15.68;89.18;100278.00;5036450;28;20314;-86
2021/07/29 04:08:07;;;;;;;2.65;2.10;;;;;;;15.71;88.21;100280.56;5025059;28;20509;-87
2021/07/29 04:10:34;;;;;;;2.28;1.65;;;;;;;15.73;88.29;100283.97;5021707;28;20486;-87
2021/07/29 04:13:01;;;;;;;5.70;2.42;;;;;;;15.77;87.82;100282.94;5025760;28;20052;-87
2021/07/29 04:15:27;;;;;;;2.63;2.42;;;;;;;15.82;87.03;100285.47;5038457;28;20151;-87
2021/07/29 04:17:54;;;;;;;3.60;2.00;;;;;;;15.86;86.65;100287.91;5008942;28;20049;-86
2021/07/29 04:20:21;;;;;;;1.40;1.30;;;;;;;15.90;86.47;100283.41;5009671;28;20049;-87
2021/07/29 04:22:47;;;;;;;2.13;2.00;;;;;;;15.92;85.83;100289.50;5038537;28;20045;-86
2021/07/29 04:25:14;;;;;;;2.38;2.17;;;;;;;15.96;85.88;100295.53;5028282;28;20048;-86
2021/07/29 04:27:41;;;;;;;2.22;2.00;;;;;;;15.98;85.78;100293.66;5027966;28;20509;-87
2021/07/29 04:30:08;;;;;;;2.20;2.00;;;;;;;15.99;86.23;100292.75;5027447;28;20083;-86
2021/07/29 04:32:36;;;;;;;4.07;2.45;;;;;;;15.97;86.81;100305.13;5022491;28;20116;-86
2021/07/29 04:35:06;;;;;;;2.42;2.22;;;;;;;15.93;86.93;100296.50;5027615;28;20441;-86
2021/07/29 04:37:33;;;;;;;2.10;1.98;;;;;;;15.93;87.25;100304.41;5040678;28;20056;-86
2021/07/29 04:40:03;;;;;;;2.42;2.10;;;;;;;15.92;87.35;100313.25;5027056;28;20075;-86
2021/07/29 04:42:30;;;;;;;2.25;2.05;;;;;;;15.91;87.52;100311.50;5041321;28;20412;-86
2021/07/29 04:44:56;;;;;;;2.75;2.55;;;;;;;15.90;88.44;100307.16;5020388;28;20044;-86
2021/07/29 04:47:28;;;;;;;3.88;2.65;;;;;;;15.87;87.93;100309.91;5033402;28;20045;-85
2021/07/29 04:49:55;;;;;;;4.25;2.63;;;;;;;15.84;88.28;100308.25;5043882;28;20060;-86
2021/07/29 04:52:22;;;;;;;3.47;2.92;;;;;;;15.85;88.52;100314.38;5036693;28;20523;-85
2021/07/29 04:54:48;;;;;;;2.88;2.30;;;;;;;15.85;88.29;100315.25;5056782;28;20054;-86
2021/07/29 04:57:15;;;;;;;6.25;2.63;;;;;;;15.88;88.68;100316.91;5029213;28;20074;-84
2021/07/29 04:59:42;;;;;;;2.55;2.35;;;;;;;15.92;88.00;100320.28;5043113;28;20055;-86
2021/07/29 05:02:11;;;;;;;5.57;2.75;;;;;;;15.93;87.98;100324.66;5056370;28;20240;-86
2021/07/29 05:04:38;;;;;;;2.40;2.20;;;;;;;15.97;87.92;100319.22;5044562;28;20079;-84
2021/07/29 05:07:05;;;;;;;3.00;2.10;;;;;;;16.01;88.17;100314.69;5036442;28;20055;-85
2021/07/29 05:09:31;;;;;;;3.28;2.25;;;;;;;16.06;87.71;100310.09;5022688;28;20053;-85
2021/07/29 05:11:58;;;;;;;2.83;2.17;;;;;;;16.06;87.41;100317.16;5025144;28;20063;-84
2021/07/29 05:14:25;;;;;;;2.33;2.13;;;;;;;16.10;87.08;100309.06;5038798;28;20119;-84
2021/07/29 05:16:51;;;;;;;4.82;2.28;;;;;;;16.12;86.41;100303.72;5022550;28;20724;-85
2021/07/29 05:19:18;;;;;;;3.03;2.13;;;;;;;16.13;86.48;100303.66;5042470;28;20048;-87
2021/07/29 05:21:46;;;;;;;1.85;1.73;;;;;;;16.16;86.58;100298.25;5041108;28;20139;-85
2021/07/29 05:24:12;;;;;;;2.70;2.47;;;;;;;16.17;86.58;100296.50;5037192;28;20040;-85
2021/07/29 05:26:39;;;;;;;2.45;2.35;;;;;;;16.24;86.13;100294.47;5025170;28;20526;-84
2021/07/29 05:29:05;;;;;;;4.95;1.88;;;;;;;16.34;85.68;100291.41;5022628;28;20048;-85
2021/07/29 05:31:32;;;;;;;5.10;1.88;;;;;;;16.47;85.19;100299.72;5038277;28;20074;-85
2021/07/29 05:33:59;;;;;;;2.38;1.52;;;;;;;16.59;84.32;100295.72;5032779;28;20451;-86
2021/07/29 05:36:26;;;;;;;2.17;1.50;;;;;;;16.69;83.26;100305.00;5025288;28;20051;-86
2021/07/29 05:38:52;;;;;;;3.20;1.73;;;;;;;16.71;81.91;100302.31;5037112;28;20046;-85
2021/07/29 05:41:19;;;;;;;1.73;1.63;;;;;;;16.70;82.76;100298.81;5019637;28;20047;-85
2021/07/29 05:43:47;;;;;;;1.90;1.77;;;;;;;16.74;81.74;100304.84;5041415;28;20100;-86
2021/07/29 05:46:14;;;;;;;1.83;1.55;;;;;;;16.76;81.68;100305.63;5054868;28;21012;-86
2021/07/29 05:48:41;;;;;;;4.18;1.65;;;;;;;16.80;81.25;100320.44;5038805;28;20052;-86
2021/07/29 05:51:08;;;;;;;1.60;1.48;;;;;;;16.86;80.95;100311.41;5017125;28;20737;-85
2021/07/29 05:53:35;;;;;;;3.03;1.52;;;;;;;16.87;78.98;100321.91;5040186;28;20491;-85
2021/07/29 05:56:04;;;;;;;1.70;1.40;;;;;;;16.84;79.66;100323.81;5027884;28;20056;-85
2021/07/29 05:58:31;;;;;;;2.15;1.27;;;;;;;16.82;78.93;100331.81;5023952;28;20094;-86
2021/07/29 06:00:58;;;;;;;2.60;1.25;;;;;;;16.87;78.68;100335.13;5040865;28;20090;-85
2021/07/29 06:03:24;;;;;;;1.20;1.10;;;;;;;16.86;77.51;100330.78;5040790;28;20067;-86
2021/07/29 06:05:55;;;;;;;5.60;1.35;;;;;;;16.87;77.64;100329.84;5045678;28;20076;-85
2021/07/29 06:08:22;;;;;;;2.30;1.25;;;;;;;16.97;75.90;100330.38;5043957;28;20480;-84
2021/07/29 06:10:48;;;;;;;1.20;1.10;;;;;;;16.97;75.86;100337.44;5042883;28;20059;-87
2021/07/29 06:13:16;;;;;;;1.40;1.10;;;;;;;16.97;76.03;100333.03;5045224;28;20070;-85
2021/07/29 06:15:43;;;;;;;5.13;1.58;;;;;;;17.04;75.98;100336.28;5040848;28;20054;-85
2021/07/29 06:18:12;;;;;;;2.15;1.08;;;;;;;17.11;75.42;100336.88;5044307;28;20064;-86
2021/07/29 06:20:40;;;;;;;1.75;1.52;;;;;;;17.22;74.76;100329.34;5044190;28;20048;-84
2021/07/29 06:23:10;;;;;;;2.17;1.10;;;;;;;17.29;74.62;100317.59;5041050;28;20065;-86
2021/07/29 06:25:41;;;;;;;5.85;1.85;;;;;;;17.44;74.39;100333.75;5041036;28;20134;-86
2021/07/29 06:28:12;;;;;;;4.72;2.65;;;;;;;17.49;73.11;100323.81;5056113;28;20055;-85
2021/07/29 06:30:39;;;;;;;2.88;1.20;;;;;;;17.38;74.55;100331.34;5050810;28;21106;-85
2021/07/29 06:33:06;;;;;;;2.05;1.33;;;;;;;17.20;74.67;100333.84;5024313;28;20045;-86
2021/07/29 06:35:36;;;;;;;1.02;0.93;;;;;;;16.93;75.73;100327.91;5061653;28;20057;-84
2021/07/29 06:38:02;;;;;;;2.10;1.45;;;;;;;16.81;76.73;100335.38;5028900;28;20044;-85
2021/07/29 06:40:29;;;;;;;1.95;1.27;;;;;;;16.74;77.18;100333.91;5039889;28;20059;-86
2021/07/29 06:42:56;;;;;;;1.98;1.30;;;;;;;16.68;77.17;100334.16;5030290;28;20135;-86
2021/07/29 06:45:22;;;;;;;4.65;1.27;;;;;;;16.72;77.11;100348.13;5053532;28;20147;-85
2021/07/29 06:47:50;;;;;;;1.70;1.45;;;;;;;16.78;75.93;100345.22;5042167;28;20050;-86
2021/07/29 06:50:16;;;;;;;2.05;1.48;;;;;;;16.86;75.11;100336.06;5040629;28;20044;-86
2021/07/29 06:52:43;;;;;;;3.97;1.40;;;;;;;17.02;75.41;100343.41;5044914;28;20056;-86
2021/07/29 06:55:10;;;;;;;1.63;1.27;;;;;;;17.15;74.14;100354.34;5042247;28;20036;-87
2021/07/29 06:57:37;;;;;;;3.88;1.98;;;;;;;17.35;72.35;100348.22;5037298;28;20105;-85
2021/07/29 07:00:04;;;;;;;3.00;1.52;;;;;;;17.41;71.67;100344.47;5055537;28;20057;-85
2021/07/29 07:02:31;;;;;;;3.25;1.10;;;;;;;17.53;69.86;100338.63;5024116;28;20040;-86
2021/07/29 07:04:59;;;;;;;6.10;2.55;;;;;;;17.72;69.73;100344.00;5028449;28;20045;-84
2021/07/29 07:07:26;;;;;;;2.17;1.58;;;;;;;17.84;68.72;100346.09;5056382;28;20383;-87
2021/07/29 07:09:52;;;;;;;3.78;1.50;;;;;;;17.86;68.40;100344.25;5023078;28;20052;-87
2021/07/29 07:12:22;;;;;;;6.10;1.25;;;;;;;17.87;66.62;100345.09;5055554;28;20102;-85
2021/07/29 07:14:49;;;;;;;5.40;1.60;;;;;;;17.82;68.06;100342.66;5053392;28;20090;-86
2021/07/29 07:17:15;;;;;;;2.33;1.00;;;;;;;17.81;67.72;100338.28;5025282;28;20040;-85
2021/07/29 07:19:43;;;;;;;1.77;1.25;;;;;;;17.89;68.04;100347.69;5025773;28;20059;-84
2021/07/29 07:22:09;;;;;;;3.25;1.23;;;;;;;18.06;67.42;100339.88;5040090;28;20575;-85
2021/07/29 07:24:36;;;;;;;5.68;1.45;;;;;;;18.26;64.97;100349.56;5058341;28;20118;-85
2021/07/29 07:27:05;;;;;;;1.48;1.38;;;;;;;18.48;64.39;100348.56;5034687;28;20052;-87
2021/07/29 07:29:34;;;;;;;3.30;1.00;;;;;;;18.76;63.51;100353.44;5039039;28;20050;-85
2021/07/29 07:32:03;;;;;;;9.40;1.27;;;;;;;19.12;60.56;100343.78;5036931;28;20063;-84
2021/07/29 07:34:30;;;;;;;4.25;1.20;;;;;;;19.33;59.22;100353.34;4961225;28;20047;-85
2021/07/29 07:36:58;;;;;;;3.85;1.20;;;;;;;19.53;58.32;100343.50;5039915;28;20705;-86
2021/07/29 07:39:27;;;;;;;5.85;1.40;;;;;;;19.70;58.11;100349.72;5023362;28;20051;-86
2021/07/29 07:41:55;;;;;;;2.05;1.13;;;;;;;20.02;56.91;100352.53;5051188;28;20048;-86
2021/07/29 07:44:22;;;;;;;1.35;1.08;;;;;;;20.20;55.17;100342.72;5032635;28;20059;-85
2021/07/29 07:46:51;;;;;;;3.53;1.30;;;;;;;20.29;55.28;100352.84;5019608;28;20047;-86
2021/07/29 07:49:18;;;;;;;3.92;1.08;;;;;;;20.44;53.98;100343.13;5042642;28;20462;-87
2021/07/29 07:51:45;;;;;;;4.00;1.90;;;;;;;20.08;55.26;100342.41;5034673;28;20053;-86
2021/07/29 07:54:12;;;;;;;3.28;1.23;;;;;;;20.36;54.41;100346.22;5041574;28;20039;-86
2021/07/29 07:56:43;;;;;;;4.95;2.00;;;;;;;20.59;53.16;100341.44;5023267;28;20057;-86
2021/07/29 07:59:10;;;;;;;6.15;1.60;;;;;;;21.00;52.51;100327.59;5029196;28;20064;-85
2021/07/29 08:01:41;;;;;;;3.33;1.90;;;;;;;21.04;51.64;100337.16;5035005;28;20068;-85
2021/07/29 08:04:08;;;;;;;1.20;1.20;;;;;;;21.28;51.24;100331.34;5038763;28;21378;-86
2021/07/29 08:06:34;;;;;;;3.60;1.15;;;;;;;21.87;49.46;100327.84;5039049;28;20045;-85
2021/07/29 08:09:02;;;;;;;2.22;0.88;;;;;;;22.01;48.76;100313.69;5018751;28;20057;-85
2021/07/29 08:11:32;;;;;;;2.80;1.13;;;;;;;22.01;48.11;100317.19;5039551;28;20398;-86
2021/07/29 08:13:59;;;;;;;1.70;0.90;;;;;;;22.08;48.35;100323.00;5036313;28;20036;-87
2021/07/29 08:16:25;;;;;;;2.10;1.42;;;;;;;21.95;47.80;100307.78;5021275;28;20518;-86
2021/07/29 08:18:53;;;;;;;3.70;1.20;;;;;;;21.64;48.78;100307.00;5057673;28;20055;-86
2021/07/29 08:21:42;;;;;;;1.55;1.17;;;;;;;21.56;49.38;100313.72;5055260;28;20094;-86
2021/07/29 08:24:12;;;;;;;3.10;1.17;;;;;;;21.76;49.20;100313.38;5024219;28;20048;-86
2021/07/29 08:26:38;;;;;;;2.25;1.23;;;;;;;22.38;47.48;100325.56;5036630;28;20051;-85
2021/07/29 08:29:05;;;;;;;2.53;1.00;;;;;;;21.98;45.55;100320.91;5022752;28;20389;-86
2021/07/29 08:31:32;;;;;;;1.02;0.68;;;;;;;22.18;45.94;100320.63;5052111;28;20590;-86
2021/07/29 08:34:01;;;;;;;1.77;0.90;;;;;;;22.42;46.01;100335.09;5055419;28;20139;-86
2021/07/29 08:36:28;;;;;;;1.50;1.40;;;;;;;22.49;45.64;100324.88;5038842;28;20048;-86
2021/07/29 08:38:56;;;;;;;5.88;1.40;;;;;;;22.14;45.94;100322.63;5021757;28;20048;-88
2021/07/29 08:41:22;;;;;;;2.85;1.00;;;;;;;21.58;46.96;100338.47;5039241;28;20059;-85
2021/07/29 08:43:49;;;;;;;3.38;1.00;;;;;;;21.43;46.36;100334.88;5020990;28;20044;-85
2021/07/29 08:46:22;;;;;;;6.80;0.93;;;;;;;21.55;46.15;100325.31;5021203;28;20090;-86
2021/07/29 08:48:53;;;;;;;3.80;1.05;;;;;;;22.37;44.99;100331.88;5053236;28;20121;-86
2021/07/29 08:51:24;;;;;;;4.07;1.38;;;;;;;23.19;42.29;100336.38;5039175;28;20049;-86
2021/07/29 08:53:52;;;;;;;1.70;0.93;;;;;;;23.45;41.28;100315.91;5028451;28;20144;-87
2021/07/29 08:56:23;;;;;;;2.65;0.90;;;;;;;23.28;41.88;100335.75;5039185;28;20041;-88
2021/07/29 08:58:51;;;;;;;2.53;1.10;;;;;;;22.88;42.66;100327.72;5040262;28;20514;-87
2021/07/29 09:01:18;;;;;;;1.70;0.98;;;;;;;23.13;42.71;100327.81;5018381;28;20052;-87
2021/07/29 09:03:45;;;;;;;4.70;1.00;;;;;;;23.39;41.71;100335.06;5036297;28;20056;-88
2021/07/29 09:06:14;;;;;;;1.65;1.13;;;;;;;23.53;40.78;100310.06;5022536;28;20044;-87
2021/07/29 09:08:54;;;;;;;2.30;0.70;;;;;;;23.84;40.13;100329.31;5038097;28;20056;-86
2021/07/29 09:11:32;;;;;;;4.07;1.23;;;;;;;23.75;40.50;100336.16;5045005;28;20469;-87
2021/07/29 09:14:15;;;;;;;1.80;1.17;;;;;;;23.37;40.91;100342.31;5034723;28;20465;-86
2021/07/29 09:17:05;;;;;;;3.00;1.07;;;;;;;23.44;39.58;100343.59;5033337;28;21020;-87
2021/07/29 09:19:50;;;;;;;2.95;0.93;;;;;;;23.39;40.01;100343.91;5029556;28;20048;-88
2021/07/29 09:22:25;;;;;;;1.75;0.82;;;;;;;23.89;38.45;100336.03;5040867;28;20130;-87
2021/07/29 09:25:13;;;;;;;4.57;1.35;;;;;;;23.80;38.40;100342.03;5021611;28;20048;-87
2021/07/29 09:27:51;;;;;;;2.53;1.48;;;;;;;24.09;38.47;100342.69;5025448;28;20048;-87
2021/07/29 09:30:25;;;;;;;3.10;1.20;;;;;;;24.14;38.20;100333.50;5035124;28;20146;-85
2021/07/29 09:33:04;;;;;;;3.53;1.15;;;;;;;24.55;37.22;100335.84;5038644;28;20052;-86
2021/07/29 09:35:48;;;;;;;2.42;0.90;;;;;;;24.26;37.80;100336.16;5056413;28;20505;-85
2021/07/29 09:38:36;;;;;;;1.52;0.80;;;;;;;23.17;39.66;100338.31;5040724;28;20037;-86
2021/07/29 09:41:06;;;;;;;1.08;0.90;;;;;;;22.16;42.00;100342.03;5017813;28;20040;-85
2021/07/29 09:43:35;;;;;;;1.88;1.70;;;;;;;21.10;43.98;100355.41;5040023;28;20048;-86
2021/07/29 09:46:04;;;;;;;3.13;1.38;;;;;;;20.79;45.59;100362.50;5040861;28;20045;-87
2021/07/29 09:48:31;;;;;;;2.72;0.88;;;;;;;20.46;46.65;100359.88;5040486;28;20051;-86
2021/07/29 09:51:01;;;;;;;1.60;1.50;;;;;;;20.29;47.31;100356.34;5044304;28;20075;-86
2021/07/29 09:53:38;;;;;;;3.20;1.30;;;;;;;20.25;47.62;100356.59;5059066;28;22795;-85
2021/07/29 09:56:10;;;;;;;3.78;1.05;;;;;;;20.19;48.05;100348.94;5026094;28;21080;-85
2021/07/29 09:58:40;;;;;;;5.55;1.63;;;;;;;20.43;47.42;100357.41;5043997;28;20060;-85
2021/07/29 10:01:08;;;;;;;3.17;1.15;;;;;;;21.93;44.81;100352.31;5041840;28;20159;-86
2021/07/29 10:03:44;;;;;;;1.58;1.42;;;;;;;23.62;41.03;100344.16;5039215;28;20040;-85
2021/07/29 10:06:17;;;;;;;5.78;0.85;;;;;;;25.62;37.04;100333.31;5040533;28;20483;-87
2021/07/29 10:09:01;;;;;;;2.90;1.02;;;;;;;26.80;34.22;100335.59;5038949;28;20048;-87
2021/07/29 10:11:35;;;;;;;4.38;1.20;;;;;;;26.31;34.96;100337.78;5021377;28;20519;-86
2021/07/29 10:14:01;;;;;;;1.10;0.70;;;;;;;25.34;36.28;100345.25;5024533;28;20040;-87
2021/07/29 10:16:49;;;;;;;1.85;0.85;;;;;;;25.51;36.21;100352.03;5026193;28;20054;-86
2021/07/29 10:19:17;;;;;;;6.60;0.80;;;;;;;25.81;35.41;100348.81;5038751;28;20048;-85
2021/07/29 10:21:47;;;;;;;3.15;0.90;;;;;;;25.57;35.50;100354.25;5042849;28;20045;-85
2021/07/29 10:24:14;;;;;;;2.40;1.23;;;;;;;24.69;36.76;100345.59;5039473;28;20056;-85
2021/07/29 10:26:59;;;;;;;3.95;1.02;;;;;;;25.21;35.16;100342.66;5026219;28;20507;-87
2021/07/29 10:29:31;;;;;;;1.23;0.75;;;;;;;25.20;35.59;100346.31;5053508;28;20051;-83
2021/07/29 10:32:09;;;;;;;2.03;0.70;;;;;;;23.86;37.60;100356.81;5042529;28;20059;-85
2021/07/29 10:34:39;;;;;;;2.45;0.50;;;;;;;23.93;37.55;100358.09;5011133;28;20052;-86
2021/07/29 10:37:09;;;;;;;1.75;0.80;;;;;;;24.36;36.33;100360.41;5043725;28;20045;-87
2021/07/29 10:40:01;;;;;;;2.10;0.60;;;;;;;25.21;34.85;100348.00;5039394;28;20142;-88
2021/07/29 10:42:30;;;;;;;4.03;0.85;;;;;;;25.17;34.85;100351.91;5023219;28;20045;-86
2021/07/29 10:44:58;;;;;;;1.05;0.85;;;;;;;25.49;34.77;100357.53;5023512;28;21691;-87
2021/07/29 10:47:36;;;;;;;1.95;1.00;;;;;;;24.96;34.90;100371.28;5032947;28;20048;-86
2021/07/29 10:50:03;;;;;;;1.60;1.00;;;;;;;23.92;36.68;100362.59;5009509;28;20110;-86
2021/07/29 10:52:31;;;;;;;3.65;1.65;;;;;;;23.85;37.60;100371.13;5040135;28;20048;-84
2021/07/29 10:55:01;;;;;;;2.97;0.75;;;;;;;24.83;35.59;100351.75;5046640;28;20215;-87
2021/07/29 10:57:29;;;;;;;2.17;0.57;;;;;;;24.79;35.91;100364.50;5025935;28;20501;-85
2021/07/29 10:59:59;;;;;;;3.00;1.05;;;;;;;25.21;35.24;100362.28;5038418;28;20056;-85
2021/07/29 11:02:47;;;;;;;2.50;0.68;;;;;;;24.37;36.12;100366.63;5039630;28;20093;-86
2021/07/29 11:05:19;;;;;;;2.38;0.90;;;;;;;23.50;37.67;100367.22;4975170;28;20522;-85
2021/07/29 11:07:47;;;;;;;4.87;1.10;;;;;;;23.03;38.47;100371.25;5038710;28;20044;-86
2021/07/29 11:10:26;;;;;;;3.30;0.82;;;;;;;22.93;38.82;100362.97;5015062;28;20048;-87
2021/07/29 11:12:52;;;;;;;2.30;0.77;;;;;;;22.60;37.55;100346.38;5037596;28;20055;-86
2021/07/29 11:15:19;;;;;;;3.67;0.98;;;;;;;22.66;38.64;100368.28;5040776;28;20083;-87
2021/07/29 11:17:46;;;;;;;1.48;0.50;;;;;;;22.58;38.09;100366.09;5050961;28;20072;-87
2021/07/29 11:20:35;;;;;;;1.98;1.10;;;;;;;22.25;39.27;100361.94;5024558;28;20045;-86
2021/07/29 11:23:02;;;;;;;3.92;0.80;;;;;;;21.86;40.47;100374.09;5039410;28;20048;-87
2021/07/29 11:25:29;;;;;;;1.73;0.93;;;;;;;21.69;40.98;100364.47;5039324;28;20055;-87
2021/07/29 11:27:56;;;;;;;0.80;0.57;;;;;;;22.10;40.77;100372.59;5021527;28;20679;-87
2021/07/29 11:30:26;;;;;;;6.60;1.00;;;;;;;22.53;39.56;100365.53;5038753;28;20045;-85
2021/07/29 11:32:56;;;;;;;6.68;1.08;;;;;;;22.49;39.43;100369.34;5037959;28;20048;-89
2021/07/29 11:35:28;;;;;;;2.85;0.80;;;;;;;23.10;38.44;100362.72;5036913;28;20045;-86
2021/07/29 11:37:54;;;;;;;3.95;0.77;;;;;;;24.24;35.93;100342.56;5038700;28;20052;-88